sensor_id;sensor_type;location;lat;lon;timestamp;temperature;humidity
57709;SHT35;42558;52.388;13.390;2023-07-31T00:01:00;15.21;85.87
57709;SHT35;42558;52.388;13.390;2023-07-31T00:03:30;15.17;85.65
57709;SHT35;42558;52.388;13.390;2023-07-31T00:06:00;15.18;85.73
57709;SHT35;42558;52.388;13.390;2023-07-31T00:08:30;15.14;85.58
57709;SHT35;42558;52.388;13.390;2023-07-31T00:11:00;15.08;85.63
57709;SHT35;42558;52.388;13.390;2023-07-31T00:13:29;15.08;85.74
57709;SHT35;42558;52.388;13.390;2023-07-31T00:15:57;15.07;85.58
57709;SHT35;42558;52.388;13.390;2023-07-31T00:18:26;15.06;85.50
57709;SHT35;42558;52.388;13.390;2023-07-31T00:20:54;15.07;85.58
57709;SHT35;42558;52.388;13.390;2023-07-31T00:23:23;15.06;85.51
57709;SHT35;42558;52.388;13.390;2023-07-31T00:25:53;15.04;85.58
57709;SHT35;42558;52.388;13.390;2023-07-31T00:28:23;15.01;85.61
57709;SHT35;42558;52.388;13.390;2023-07-31T00:30:53;15.03;85.66
57709;SHT35;42558;52.388;13.390;2023-07-31T00:33:21;15.04;85.53
57709;SHT35;42558;52.388;13.390;2023-07-31T00:35:50;15.05;85.54
57709;SHT35;42558;52.388;13.390;2023-07-31T00:38:18;15.06;85.54
57709;SHT35;42558;52.388;13.390;2023-07-31T00:40:49;15.09;85.47
57709;SHT35;42558;52.388;13.390;2023-07-31T00:43:18;15.08;85.24
57709;SHT35;42558;52.388;13.390;2023-07-31T00:45:47;15.09;85.30
57709;SHT35;42558;52.388;13.390;2023-07-31T00:48:16;15.11;85.33
57709;SHT35;42558;52.388;13.390;2023-07-31T00:50:47;15.10;85.06
57709;SHT35;42558;52.388;13.390;2023-07-31T00:53:17;15.14;84.98
57709;SHT35;42558;52.388;13.390;2023-07-31T00:55:45;15.19;84.60
57709;SHT35;42558;52.388;13.390;2023-07-31T00:58:16;15.25;84.71
57709;SHT35;42558;52.388;13.390;2023-07-31T01:00:46;15.16;84.81
57709;SHT35;42558;52.388;13.390;2023-07-31T01:03:16;15.14;85.24
57709;SHT35;42558;52.388;13.390;2023-07-31T01:09:28;15.03;86.28
57709;SHT35;42558;52.388;13.390;2023-07-31T01:11:57;15.03;86.51
57709;SHT35;42558;52.388;13.390;2023-07-31T01:14:29;15.02;86.73
57709;SHT35;42558;52.388;13.390;2023-07-31T01:16:58;14.99;87.18
57709;SHT35;42558;52.388;13.390;2023-07-31T01:19:26;14.97;87.35
57709;SHT35;42558;52.388;13.390;2023-07-31T01:28:20;14.99;87.59
57709;SHT35;42558;52.388;13.390;2023-07-31T01:31:14;15.03;87.67
57709;SHT35;42558;52.388;13.390;2023-07-31T01:33:53;15.04;87.73
57709;SHT35;42558;52.388;13.390;2023-07-31T01:36:28;15.08;87.95
57709;SHT35;42558;52.388;13.390;2023-07-31T01:39:00;15.08;87.93
57709;SHT35;42558;52.388;13.390;2023-07-31T01:41:31;15.10;87.99
57709;SHT35;42558;52.388;13.390;2023-07-31T01:44:01;15.10;88.09
57709;SHT35;42558;52.388;13.390;2023-07-31T01:46:31;15.10;88.03
57709;SHT35;42558;52.388;13.390;2023-07-31T01:49:01;15.11;88.06
57709;SHT35;42558;52.388;13.390;2023-07-31T01:51:31;15.15;88.12
57709;SHT35;42558;52.388;13.390;2023-07-31T01:54:04;15.15;87.98
57709;SHT35;42558;52.388;13.390;2023-07-31T01:56:34;15.16;87.98
57709;SHT35;42558;52.388;13.390;2023-07-31T01:59:03;15.19;88.08
57709;SHT35;42558;52.388;13.390;2023-07-31T02:01:31;15.24;88.20
57709;SHT35;42558;52.388;13.390;2023-07-31T02:04:00;15.30;88.23
57709;SHT35;42558;52.388;13.390;2023-07-31T02:06:28;15.30;88.29
57709;SHT35;42558;52.388;13.390;2023-07-31T02:08:57;15.27;88.23
57709;SHT35;42558;52.388;13.390;2023-07-31T02:11:25;15.24;88.03
57709;SHT35;42558;52.388;13.390;2023-07-31T02:13:54;15.23;87.96
57709;SHT35;42558;52.388;13.390;2023-07-31T02:16:22;15.24;88.06
57709;SHT35;42558;52.388;13.390;2023-07-31T02:18:50;15.29;88.11
57709;SHT35;42558;52.388;13.390;2023-07-31T02:21:20;15.28;88.02
57709;SHT35;42558;52.388;13.390;2023-07-31T02:23:48;15.23;87.85
57709;SHT35;42558;52.388;13.390;2023-07-31T02:26:18;15.21;87.93
57709;SHT35;42558;52.388;13.390;2023-07-31T02:28:46;15.25;88.03
57709;SHT35;42558;52.388;13.390;2023-07-31T02:31:14;15.29;88.11
57709;SHT35;42558;52.388;13.390;2023-07-31T02:33:44;15.27;88.05
57709;SHT35;42558;52.388;13.390;2023-07-31T02:36:14;15.24;88.00
57709;SHT35;42558;52.388;13.390;2023-07-31T02:38:42;15.29;88.19
57709;SHT35;42558;52.388;13.390;2023-07-31T02:41:12;15.30;88.11
57709;SHT35;42558;52.388;13.390;2023-07-31T02:43:42;15.24;88.00
57709;SHT35;42558;52.388;13.390;2023-07-31T02:46:12;15.22;88.07
57709;SHT35;42558;52.388;13.390;2023-07-31T02:48:42;15.21;88.08
57709;SHT35;42558;52.388;13.390;2023-07-31T02:51:11;15.15;88.13
57709;SHT35;42558;52.388;13.390;2023-07-31T02:53:40;15.09;88.27
57709;SHT35;42558;52.388;13.390;2023-07-31T02:56:11;15.09;88.38
57709;SHT35;42558;52.388;13.390;2023-07-31T02:58:40;15.07;88.45
57709;SHT35;42558;52.388;13.390;2023-07-31T03:01:09;15.03;88.50
57709;SHT35;42558;52.388;13.390;2023-07-31T03:03:38;14.97;88.62
57709;SHT35;42558;52.388;13.390;2023-07-31T03:06:07;14.97;88.89
57709;SHT35;42558;52.388;13.390;2023-07-31T03:08:37;15.00;88.94
57709;SHT35;42558;52.388;13.390;2023-07-31T03:11:05;14.99;88.96
57709;SHT35;42558;52.388;13.390;2023-07-31T03:13:35;15.05;89.10
57709;SHT35;42558;52.388;13.390;2023-07-31T03:16:04;15.07;89.13
57709;SHT35;42558;52.388;13.390;2023-07-31T03:18:33;15.07;89.17
57709;SHT35;42558;52.388;13.390;2023-07-31T03:21:01;15.00;89.16
57709;SHT35;42558;52.388;13.390;2023-07-31T03:23:31;14.98;89.25
57709;SHT35;42558;52.388;13.390;2023-07-31T03:26:02;15.02;89.36
57709;SHT35;42558;52.388;13.390;2023-07-31T03:28:34;14.97;89.35
57709;SHT35;42558;52.388;13.390;2023-07-31T03:31:03;14.95;89.48
57709;SHT35;42558;52.388;13.390;2023-07-31T03:33:33;14.98;89.60
57709;SHT35;42558;52.388;13.390;2023-07-31T03:36:02;14.90;89.54
57709;SHT35;42558;52.388;13.390;2023-07-31T03:38:31;14.90;89.65
57709;SHT35;42558;52.388;13.390;2023-07-31T03:41:00;14.94;89.72
57709;SHT35;42558;52.388;13.390;2023-07-31T03:43:31;14.97;89.70
57709;SHT35;42558;52.388;13.390;2023-07-31T03:46:03;14.95;89.66
57709;SHT35;42558;52.388;13.390;2023-07-31T03:48:33;14.93;89.71
57709;SHT35;42558;52.388;13.390;2023-07-31T03:51:03;14.93;89.75
57709;SHT35;42558;52.388;13.390;2023-07-31T03:53:33;14.88;89.71
57709;SHT35;42558;52.388;13.390;2023-07-31T03:56:01;14.93;89.92
57709;SHT35;42558;52.388;13.390;2023-07-31T03:58:31;14.94;89.91
57709;SHT35;42558;52.388;13.390;2023-07-31T04:01:00;14.93;89.92
57709;SHT35;42558;52.388;13.390;2023-07-31T04:03:30;14.92;89.94
57709;SHT35;42558;52.388;13.390;2023-07-31T04:06:00;14.93;89.98
57709;SHT35;42558;52.388;13.390;2023-07-31T04:08:30;14.93;90.00
57709;SHT35;42558;52.388;13.390;2023-07-31T04:11:00;14.94;90.03
57709;SHT35;42558;52.388;13.390;2023-07-31T04:13:30;14.95;90.00
57709;SHT35;42558;52.388;13.390;2023-07-31T04:16:00;14.98;90.07
57709;SHT35;42558;52.388;13.390;2023-07-31T04:18:31;14.97;89.95
57709;SHT35;42558;52.388;13.390;2023-07-31T04:21:01;15.04;90.07
57709;SHT35;42558;52.388;13.390;2023-07-31T04:23:31;15.09;89.95
57709;SHT35;42558;52.388;13.390;2023-07-31T04:26:00;15.05;89.78
57709;SHT35;42558;52.388;13.390;2023-07-31T04:28:28;15.08;89.84
57709;SHT35;42558;52.388;13.390;2023-07-31T04:31:00;15.09;89.74
57709;SHT35;42558;52.388;13.390;2023-07-31T04:33:30;15.08;89.74
57709;SHT35;42558;52.388;13.390;2023-07-31T04:36:00;15.15;89.85
57709;SHT35;42558;52.388;13.390;2023-07-31T04:38:28;15.13;89.74
57709;SHT35;42558;52.388;13.390;2023-07-31T04:40:57;15.15;89.74
57709;SHT35;42558;52.388;13.390;2023-07-31T04:43:25;15.15;89.69
57709;SHT35;42558;52.388;13.390;2023-07-31T04:45:56;15.19;89.72
57709;SHT35;42558;52.388;13.390;2023-07-31T04:48:25;15.16;89.58
57709;SHT35;42558;52.388;13.390;2023-07-31T04:50:54;15.17;89.62
57709;SHT35;42558;52.388;13.390;2023-07-31T04:53:24;15.20;89.69
57709;SHT35;42558;52.388;13.390;2023-07-31T04:55:52;15.20;89.63
57709;SHT35;42558;52.388;13.390;2023-07-31T04:58:22;15.19;89.61
57709;SHT35;42558;52.388;13.390;2023-07-31T05:00:53;15.21;89.57
57709;SHT35;42558;52.388;13.390;2023-07-31T05:03:23;15.20;89.32
57709;SHT35;42558;52.388;13.390;2023-07-31T05:05:51;15.34;89.53
57709;SHT35;42558;52.388;13.390;2023-07-31T05:08:21;15.43;89.44
57709;SHT35;42558;52.388;13.390;2023-07-31T05:10:51;15.47;89.39
57709;SHT35;42558;52.388;13.390;2023-07-31T05:13:21;15.37;89.07
57709;SHT35;42558;52.388;13.390;2023-07-31T05:15:48;15.40;89.30
57709;SHT35;42558;52.388;13.390;2023-07-31T05:18:18;15.47;89.31
57709;SHT35;42558;52.388;13.390;2023-07-31T05:20:48;15.48;89.20
57709;SHT35;42558;52.388;13.390;2023-07-31T05:23:18;15.52;89.14
57709;SHT35;42558;52.388;13.390;2023-07-31T05:25:47;15.46;88.93
57709;SHT35;42558;52.388;13.390;2023-07-31T05:28:15;15.45;88.94
57709;SHT35;42558;52.388;13.390;2023-07-31T05:30:45;15.42;88.86
57709;SHT35;42558;52.388;13.390;2023-07-31T05:33:15;15.47;89.05
57709;SHT35;42558;52.388;13.390;2023-07-31T05:35:45;15.44;88.95
57709;SHT35;42558;52.388;13.390;2023-07-31T05:38:16;15.45;88.89
57709;SHT35;42558;52.388;13.390;2023-07-31T05:40:46;15.50;88.88
57709;SHT35;42558;52.388;13.390;2023-07-31T05:43:17;15.52;88.78
57709;SHT35;42558;52.388;13.390;2023-07-31T05:45:47;15.55;88.82
57709;SHT35;42558;52.388;13.390;2023-07-31T05:48:17;15.53;88.56
57709;SHT35;42558;52.388;13.390;2023-07-31T05:50:47;15.57;88.68
57709;SHT35;42558;52.388;13.390;2023-07-31T05:53:17;15.60;88.75
57709;SHT35;42558;52.388;13.390;2023-07-31T05:55:48;15.62;88.62
57709;SHT35;42558;52.388;13.390;2023-07-31T05:58:18;15.65;88.76
57709;SHT35;42558;52.388;13.390;2023-07-31T06:00:48;15.66;88.57
57709;SHT35;42558;52.388;13.390;2023-07-31T06:03:18;15.64;88.51
57709;SHT35;42558;52.388;13.390;2023-07-31T06:05:48;15.71;88.83
57709;SHT35;42558;52.388;13.390;2023-07-31T06:08:18;15.78;88.67
57709;SHT35;42558;52.388;13.390;2023-07-31T06:10:48;15.87;88.70
57709;SHT35;42558;52.388;13.390;2023-07-31T06:13:18;15.91;88.70
57709;SHT35;42558;52.388;13.390;2023-07-31T06:15:48;16.00;88.89
57709;SHT35;42558;52.388;13.390;2023-07-31T06:18:18;15.99;88.71
57709;SHT35;42558;52.388;13.390;2023-07-31T06:20:48;15.99;88.49
57709;SHT35;42558;52.388;13.390;2023-07-31T06:23:23;16.08;88.67
57709;SHT35;42558;52.388;13.390;2023-07-31T06:25:52;16.11;88.56
57709;SHT35;42558;52.388;13.390;2023-07-31T06:28:29;16.09;88.42
57709;SHT35;42558;52.388;13.390;2023-07-31T06:30:58;16.11;88.49
57709;SHT35;42558;52.388;13.390;2023-07-31T06:33:26;16.00;88.41
57709;SHT35;42558;52.388;13.390;2023-07-31T06:35:57;15.98;88.53
57709;SHT35;42558;52.388;13.390;2023-07-31T06:38:26;16.03;88.59
57709;SHT35;42558;52.388;13.390;2023-07-31T06:40:54;16.10;88.50
57709;SHT35;42558;52.388;13.390;2023-07-31T06:43:25;16.10;88.28
57709;SHT35;42558;52.388;13.390;2023-07-31T06:45:55;16.10;88.21
57709;SHT35;42558;52.388;13.390;2023-07-31T06:48:23;16.07;88.15
57709;SHT35;42558;52.388;13.390;2023-07-31T06:50:51;16.11;88.22
57709;SHT35;42558;52.388;13.390;2023-07-31T06:53:21;16.14;88.32
57709;SHT35;42558;52.388;13.390;2023-07-31T06:55:50;16.07;88.16
57709;SHT35;42558;52.388;13.390;2023-07-31T06:58:18;16.05;88.31
57709;SHT35;42558;52.388;13.390;2023-07-31T07:00:47;16.03;88.44
57709;SHT35;42558;52.388;13.390;2023-07-31T07:03:18;16.13;88.65
57709;SHT35;42558;52.388;13.390;2023-07-31T07:05:46;16.17;88.69
57709;SHT35;42558;52.388;13.390;2023-07-31T07:08:15;16.03;88.51
57709;SHT35;42558;52.388;13.390;2023-07-31T07:10:46;16.04;89.11
57709;SHT35;42558;52.388;13.390;2023-07-31T07:13:16;16.08;89.11
57709;SHT35;42558;52.388;13.390;2023-07-31T07:15:48;16.00;89.10
57709;SHT35;42558;52.388;13.390;2023-07-31T07:18:19;15.97;89.06
57709;SHT35;42558;52.388;13.390;2023-07-31T07:20:51;15.95;89.23
57709;SHT35;42558;52.388;13.390;2023-07-31T07:23:23;16.01;89.31
57709;SHT35;42558;52.388;13.390;2023-07-31T07:25:54;16.09;89.43
57709;SHT35;42558;52.388;13.390;2023-07-31T07:28:24;16.15;89.29
57709;SHT35;42558;52.388;13.390;2023-07-31T07:30:54;16.14;88.97
57709;SHT35;42558;52.388;13.390;2023-07-31T07:33:24;16.18;88.84
57709;SHT35;42558;52.388;13.390;2023-07-31T07:35:54;16.27;89.19
57709;SHT35;42558;52.388;13.390;2023-07-31T07:38:24;16.35;89.02
57709;SHT35;42558;52.388;13.390;2023-07-31T07:40:54;16.33;88.80
57709;SHT35;42558;52.388;13.390;2023-07-31T07:43:24;16.25;88.78
57709;SHT35;42558;52.388;13.390;2023-07-31T07:45:54;16.32;88.99
57709;SHT35;42558;52.388;13.390;2023-07-31T07:48:24;16.45;88.96
57709;SHT35;42558;52.388;13.390;2023-07-31T07:50:55;16.56;88.87
57709;SHT35;42558;52.388;13.390;2023-07-31T07:53:25;16.60;88.87
57709;SHT35;42558;52.388;13.390;2023-07-31T07:55:55;16.60;88.76
57709;SHT35;42558;52.388;13.390;2023-07-31T07:58:26;16.66;89.12
57709;SHT35;42558;52.388;13.390;2023-07-31T08:00:56;16.57;88.78
57709;SHT35;42558;52.388;13.390;2023-07-31T08:03:25;16.55;88.87
57709;SHT35;42558;52.388;13.390;2023-07-31T08:05:59;16.55;88.96
57709;SHT35;42558;52.388;13.390;2023-07-31T08:08:31;16.46;88.95
57709;SHT35;42558;52.388;13.390;2023-07-31T08:11:01;16.40;89.13
57709;SHT35;42558;52.388;13.390;2023-07-31T08:13:31;16.45;89.74
57709;SHT35;42558;52.388;13.390;2023-07-31T08:16:01;16.50;89.65
57709;SHT35;42558;52.388;13.390;2023-07-31T08:18:31;16.52;89.57
57709;SHT35;42558;52.388;13.390;2023-07-31T08:21:02;16.61;89.75
57709;SHT35;42558;52.388;13.390;2023-07-31T08:23:32;16.66;89.62
57709;SHT35;42558;52.388;13.390;2023-07-31T08:26:02;16.69;89.66
57709;SHT35;42558;52.388;13.390;2023-07-31T08:28:32;16.78;89.62
57709;SHT35;42558;52.388;13.390;2023-07-31T08:31:02;16.85;89.58
57709;SHT35;42558;52.388;13.390;2023-07-31T08:33:32;16.92;89.39
57709;SHT35;42558;52.388;13.390;2023-07-31T08:36:02;17.00;89.41
57709;SHT35;42558;52.388;13.390;2023-07-31T08:38:33;17.12;89.22
57709;SHT35;42558;52.388;13.390;2023-07-31T08:41:03;17.19;88.76
57709;SHT35;42558;52.388;13.390;2023-07-31T08:43:35;17.14;88.39
57709;SHT35;42558;52.388;13.390;2023-07-31T08:46:07;17.12;88.41
57709;SHT35;42558;52.388;13.390;2023-07-31T08:48:38;17.14;88.19
57709;SHT35;42558;52.388;13.390;2023-07-31T08:51:11;17.11;88.33
57709;SHT35;42558;52.388;13.390;2023-07-31T08:53:43;17.14;88.48
57709;SHT35;42558;52.388;13.390;2023-07-31T08:56:13;17.17;88.73
57709;SHT35;42558;52.388;13.390;2023-07-31T08:58:46;17.19;88.59
57709;SHT35;42558;52.388;13.390;2023-07-31T09:01:17;17.12;88.47
57709;SHT35;42558;52.388;13.390;2023-07-31T09:03:48;17.12;88.21
57709;SHT35;42558;52.388;13.390;2023-07-31T09:06:21;17.24;88.17
57709;SHT35;42558;52.388;13.390;2023-07-31T09:08:56;17.40;87.89
57709;SHT35;42558;52.388;13.390;2023-07-31T09:11:26;17.54;87.48
57709;SHT35;42558;52.388;13.390;2023-07-31T09:13:57;17.55;87.50
57709;SHT35;42558;52.388;13.390;2023-07-31T09:16:28;17.65;87.08
57709;SHT35;42558;52.388;13.390;2023-07-31T09:19:02;17.72;86.67
57709;SHT35;42558;52.388;13.390;2023-07-31T09:21:30;17.57;85.57
57709;SHT35;42558;52.388;13.390;2023-07-31T09:23:58;17.55;86.01
57709;SHT35;42558;52.388;13.390;2023-07-31T09:26:34;17.50;85.50
57709;SHT35;42558;52.388;13.390;2023-07-31T09:29:07;17.33;85.38
57709;SHT35;42558;52.388;13.390;2023-07-31T09:31:50;17.06;85.86
57709;SHT35;42558;52.388;13.390;2023-07-31T09:34:20;17.16;86.62
57709;SHT35;42558;52.388;13.390;2023-07-31T09:37:01;17.44;86.47
57709;SHT35;42558;52.388;13.390;2023-07-31T09:39:32;17.54;85.85
57709;SHT35;42558;52.388;13.390;2023-07-31T09:42:14;17.66;86.12
57709;SHT35;42558;52.388;13.390;2023-07-31T09:44:56;17.66;85.38
57709;SHT35;42558;52.388;13.390;2023-07-31T09:47:36;17.72;85.58
57709;SHT35;42558;52.388;13.390;2023-07-31T09:50:09;17.78;85.07
57709;SHT35;42558;52.388;13.390;2023-07-31T09:52:39;17.73;85.10
57709;SHT35;42558;52.388;13.390;2023-07-31T09:55:09;17.92;85.47
57709;SHT35;42558;52.388;13.390;2023-07-31T09:57:41;17.95;84.83
57709;SHT35;42558;52.388;13.390;2023-07-31T10:00:15;17.92;84.77
57709;SHT35;42558;52.388;13.390;2023-07-31T10:02:49;17.86;84.82
57709;SHT35;42558;52.388;13.390;2023-07-31T10:05:21;17.87;85.27
57709;SHT35;42558;52.388;13.390;2023-07-31T10:07:53;17.82;85.10
57709;SHT35;42558;52.388;13.390;2023-07-31T10:10:25;17.69;85.87
57709;SHT35;42558;52.388;13.390;2023-07-31T10:12:57;17.75;86.11
57709;SHT35;42558;52.388;13.390;2023-07-31T10:15:30;17.84;86.07
57709;SHT35;42558;52.388;13.390;2023-07-31T10:18:02;17.86;85.92
57709;SHT35;42558;52.388;13.390;2023-07-31T10:20:35;17.89;86.20
57709;SHT35;42558;52.388;13.390;2023-07-31T10:23:06;17.90;86.23
57709;SHT35;42558;52.388;13.390;2023-07-31T10:25:37;17.88;86.45
57709;SHT35;42558;52.388;13.390;2023-07-31T10:28:09;17.98;86.32
57709;SHT35;42558;52.388;13.390;2023-07-31T10:30:40;17.99;86.39
57709;SHT35;42558;52.388;13.390;2023-07-31T10:33:11;18.19;86.73
57709;SHT35;42558;52.388;13.390;2023-07-31T10:35:42;18.49;86.79
57709;SHT35;42558;52.388;13.390;2023-07-31T10:38:12;18.60;85.56
57709;SHT35;42558;52.388;13.390;2023-07-31T10:40:42;18.70;85.77
57709;SHT35;42558;52.388;13.390;2023-07-31T10:43:23;19.08;85.17
57709;SHT35;42558;52.388;13.390;2023-07-31T10:45:56;19.54;84.47
57709;SHT35;42558;52.388;13.390;2023-07-31T10:48:26;19.70;82.80
57709;SHT35;42558;52.388;13.390;2023-07-31T10:51:07;19.93;82.26
57709;SHT35;42558;52.388;13.390;2023-07-31T10:53:40;19.78;80.90
57709;SHT35;42558;52.388;13.390;2023-07-31T10:56:11;19.92;80.54
57709;SHT35;42558;52.388;13.390;2023-07-31T10:58:43;20.31;79.62
57709;SHT35;42558;52.388;13.390;2023-07-31T11:01:14;20.61;77.88
57709;SHT35;42558;52.388;13.390;2023-07-31T11:03:45;21.10;77.17
57709;SHT35;42558;52.388;13.390;2023-07-31T11:06:18;21.18;75.99
57709;SHT35;42558;52.388;13.390;2023-07-31T11:08:46;21.42;76.17
57709;SHT35;42558;52.388;13.390;2023-07-31T11:11:18;21.24;74.07
57709;SHT35;42558;52.388;13.390;2023-07-31T11:13:49;21.22;73.81
57709;SHT35;42558;52.388;13.390;2023-07-31T11:16:24;21.43;71.61
57709;SHT35;42558;52.388;13.390;2023-07-31T11:18:54;21.38;69.38
57709;SHT35;42558;52.388;13.390;2023-07-31T11:21:24;21.33;69.13
57709;SHT35;42558;52.388;13.390;2023-07-31T11:23:57;21.28;68.45
57709;SHT35;42558;52.388;13.390;2023-07-31T11:26:26;21.09;67.90
57709;SHT35;42558;52.388;13.390;2023-07-31T11:28:57;21.08;69.39
57709;SHT35;42558;52.388;13.390;2023-07-31T11:31:27;21.17;69.59
57709;SHT35;42558;52.388;13.390;2023-07-31T11:34:14;21.13;69.40
57709;SHT35;42558;52.388;13.390;2023-07-31T11:36:55;21.09;69.33
57709;SHT35;42558;52.388;13.390;2023-07-31T11:39:23;21.16;68.79
57709;SHT35;42558;52.388;13.390;2023-07-31T11:41:58;21.13;68.59
57709;SHT35;42558;52.388;13.390;2023-07-31T11:44:36;21.04;67.72
57709;SHT35;42558;52.388;13.390;2023-07-31T11:51:20;20.76;70.30
57709;SHT35;42558;52.388;13.390;2023-07-31T11:53:50;20.75;69.78
57709;SHT35;42558;52.388;13.390;2023-07-31T11:56:25;20.77;69.90
57709;SHT35;42558;52.388;13.390;2023-07-31T11:58:59;20.63;70.39
57709;SHT35;42558;52.388;13.390;2023-07-31T12:01:32;20.68;70.00
57709;SHT35;42558;52.388;13.390;2023-07-31T12:04:03;20.71;69.35
57709;SHT35;42558;52.388;13.390;2023-07-31T12:06:34;20.68;68.72
57709;SHT35;42558;52.388;13.390;2023-07-31T12:09:06;20.82;69.07
57709;SHT35;42558;52.388;13.390;2023-07-31T12:11:42;20.88;69.09
57709;SHT35;42558;52.388;13.390;2023-07-31T12:14:27;20.93;69.65
57709;SHT35;42558;52.388;13.390;2023-07-31T12:17:00;20.81;69.14
57709;SHT35;42558;52.388;13.390;2023-07-31T12:19:34;20.60;69.86
57709;SHT35;42558;52.388;13.390;2023-07-31T12:22:01;20.52;69.95
57709;SHT35;42558;52.388;13.390;2023-07-31T12:24:41;20.48;70.27
57709;SHT35;42558;52.388;13.390;2023-07-31T12:27:14;20.57;69.83
57709;SHT35;42558;52.388;13.390;2023-07-31T12:29:46;20.38;69.36
57709;SHT35;42558;52.388;13.390;2023-07-31T12:34:52;20.49;70.21
57709;SHT35;42558;52.388;13.390;2023-07-31T12:37:22;20.60;70.34
57709;SHT35;42558;52.388;13.390;2023-07-31T12:39:52;20.62;69.49
57709;SHT35;42558;52.388;13.390;2023-07-31T12:42:20;20.82;68.86
57709;SHT35;42558;52.388;13.390;2023-07-31T12:44:48;20.94;68.74
57709;SHT35;42558;52.388;13.390;2023-07-31T12:47:17;20.93;68.75
57709;SHT35;42558;52.388;13.390;2023-07-31T12:49:47;20.95;67.34
57709;SHT35;42558;52.388;13.390;2023-07-31T12:52:15;21.15;67.82
57709;SHT35;42558;52.388;13.390;2023-07-31T12:54:44;21.14;67.40
57709;SHT35;42558;52.388;13.390;2023-07-31T12:57:13;21.38;68.01
57709;SHT35;42558;52.388;13.390;2023-07-31T12:59:42;21.37;67.47
57709;SHT35;42558;52.388;13.390;2023-07-31T13:02:12;21.31;67.60
57709;SHT35;42558;52.388;13.390;2023-07-31T13:04:40;21.09;68.04
57709;SHT35;42558;52.388;13.390;2023-07-31T13:07:10;20.97;68.06
57709;SHT35;42558;52.388;13.390;2023-07-31T13:09:39;20.92;67.85
57709;SHT35;42558;52.388;13.390;2023-07-31T13:12:08;21.08;67.77
57709;SHT35;42558;52.388;13.390;2023-07-31T13:14:38;21.33;67.82
57709;SHT35;42558;52.388;13.390;2023-07-31T13:17:08;21.47;68.97
57709;SHT35;42558;52.388;13.390;2023-07-31T13:19:37;21.68;66.69
57709;SHT35;42558;52.388;13.390;2023-07-31T13:22:07;21.56;66.84
57709;SHT35;42558;52.388;13.390;2023-07-31T13:24:37;21.65;66.89
57709;SHT35;42558;52.388;13.390;2023-07-31T13:27:07;21.32;67.49
57709;SHT35;42558;52.388;13.390;2023-07-31T13:29:37;21.40;68.67
57709;SHT35;42558;52.388;13.390;2023-07-31T13:32:07;21.40;67.66
57709;SHT35;42558;52.388;13.390;2023-07-31T13:34:37;21.30;67.89
57709;SHT35;42558;52.388;13.390;2023-07-31T13:37:07;21.45;67.61
57709;SHT35;42558;52.388;13.390;2023-07-31T13:39:37;21.68;67.28
57709;SHT35;42558;52.388;13.390;2023-07-31T13:42:08;21.67;67.12
57709;SHT35;42558;52.388;13.390;2023-07-31T13:44:43;21.68;67.16
57709;SHT35;42558;52.388;13.390;2023-07-31T13:47:11;21.65;66.73
57709;SHT35;42558;52.388;13.390;2023-07-31T13:49:41;21.72;66.62
57709;SHT35;42558;52.388;13.390;2023-07-31T13:52:12;21.83;66.52
57709;SHT35;42558;52.388;13.390;2023-07-31T13:54:41;21.84;66.99
57709;SHT35;42558;52.388;13.390;2023-07-31T13:57:12;21.96;66.48
57709;SHT35;42558;52.388;13.390;2023-07-31T13:59:42;22.00;66.19
57709;SHT35;42558;52.388;13.390;2023-07-31T14:02:11;22.01;66.22
57709;SHT35;42558;52.388;13.390;2023-07-31T14:04:43;22.03;67.10
57709;SHT35;42558;52.388;13.390;2023-07-31T14:07:13;22.08;66.22
57709;SHT35;42558;52.388;13.390;2023-07-31T14:09:42;21.94;66.51
57709;SHT35;42558;52.388;13.390;2023-07-31T14:12:13;21.83;65.76
57709;SHT35;42558;52.388;13.390;2023-07-31T14:14:53;21.84;66.22
57709;SHT35;42558;52.388;13.390;2023-07-31T14:17:22;21.64;66.14
57709;SHT35;42558;52.388;13.390;2023-07-31T14:19:50;21.67;66.41
57709;SHT35;42558;52.388;13.390;2023-07-31T14:22:28;21.56;66.46
57709;SHT35;42558;52.388;13.390;2023-07-31T14:24:59;21.70;67.07
57709;SHT35;42558;52.388;13.390;2023-07-31T14:27:29;21.74;67.07
57709;SHT35;42558;52.388;13.390;2023-07-31T14:29:56;21.58;66.62
57709;SHT35;42558;52.388;13.390;2023-07-31T14:32:26;21.66;67.07
57709;SHT35;42558;52.388;13.390;2023-07-31T14:34:55;21.73;66.96
57709;SHT35;42558;52.388;13.390;2023-07-31T14:37:26;21.75;66.79
57709;SHT35;42558;52.388;13.390;2023-07-31T14:43:14;21.78;67.24
57709;SHT35;42558;52.388;13.390;2023-07-31T14:45:44;21.86;65.78
57709;SHT35;42558;52.388;13.390;2023-07-31T14:48:15;21.84;65.42
57709;SHT35;42558;52.388;13.390;2023-07-31T14:50:44;21.87;65.75
57709;SHT35;42558;52.388;13.390;2023-07-31T14:53:12;21.80;66.37
57709;SHT35;42558;52.388;13.390;2023-07-31T14:55:41;21.75;65.99
57709;SHT35;42558;52.388;13.390;2023-07-31T14:58:09;21.78;66.06
57709;SHT35;42558;52.388;13.390;2023-07-31T15:00:41;21.80;65.98
57709;SHT35;42558;52.388;13.390;2023-07-31T15:03:11;21.73;66.24
57709;SHT35;42558;52.388;13.390;2023-07-31T15:05:41;21.65;66.12
57709;SHT35;42558;52.388;13.390;2023-07-31T15:08:11;21.49;66.93
57709;SHT35;42558;52.388;13.390;2023-07-31T15:10:41;21.35;66.70
57709;SHT35;42558;52.388;13.390;2023-07-31T15:13:11;21.14;66.37
57709;SHT35;42558;52.388;13.390;2023-07-31T15:15:40;21.16;66.01
57709;SHT35;42558;52.388;13.390;2023-07-31T15:18:08;21.23;65.55
57709;SHT35;42558;52.388;13.390;2023-07-31T15:20:37;21.29;66.26
57709;SHT35;42558;52.388;13.390;2023-07-31T15:23:05;21.30;68.16
57709;SHT35;42558;52.388;13.390;2023-07-31T15:25:33;21.19;69.46
57709;SHT35;42558;52.388;13.390;2023-07-31T15:28:02;21.13;69.68
57709;SHT35;42558;52.388;13.390;2023-07-31T15:30:30;21.09;70.23
57709;SHT35;42558;52.388;13.390;2023-07-31T15:32:59;21.07;70.43
57709;SHT35;42558;52.388;13.390;2023-07-31T15:35:27;20.95;70.34
57709;SHT35;42558;52.388;13.390;2023-07-31T15:37:56;20.96;70.47
57709;SHT35;42558;52.388;13.390;2023-07-31T15:40:24;21.08;70.35
57709;SHT35;42558;52.388;13.390;2023-07-31T15:42:52;21.20;70.03
57709;SHT35;42558;52.388;13.390;2023-07-31T15:45:21;21.26;69.87
57709;SHT35;42558;52.388;13.390;2023-07-31T15:47:49;21.27;70.27
57709;SHT35;42558;52.388;13.390;2023-07-31T15:50:19;21.38;69.55
57709;SHT35;42558;52.388;13.390;2023-07-31T15:52:48;21.65;68.54
57709;SHT35;42558;52.388;13.390;2023-07-31T15:55:16;21.69;68.34